createdAt,value
2023-11-12T00:01:23.126Z,5.61
2023-11-12T00:03:52.426Z,5.65
2023-11-12T00:06:20.446Z,5.66
2023-11-12T00:08:48.317Z,5.69
2023-11-12T00:11:16.394Z,5.73
2023-11-12T00:13:44.470Z,5.75
2023-11-12T00:16:12.689Z,5.74
2023-11-12T00:18:40.663Z,5.79
2023-11-12T00:21:10.023Z,5.80
2023-11-12T00:23:38.421Z,5.82
2023-11-12T00:26:06.416Z,5.82
2023-11-12T00:28:34.485Z,5.79
2023-11-12T00:31:02.368Z,5.79
2023-11-12T00:33:30.985Z,5.80
2023-11-12T00:35:58.865Z,5.81
2023-11-12T00:38:28.210Z,5.80
2023-11-12T00:40:57.326Z,5.77
2023-11-12T00:43:28.403Z,5.77
2023-11-12T00:45:59.727Z,5.78
2023-11-12T00:48:27.846Z,5.78
2023-11-12T00:50:55.934Z,5.80
2023-11-12T00:53:24.498Z,5.80
2023-11-12T00:55:53.885Z,5.80
2023-11-12T00:58:21.911Z,5.78
2023-11-12T01:00:50.870Z,5.74
2023-11-12T01:03:18.844Z,5.74
2023-11-12T01:05:47.174Z,5.75
2023-11-12T01:08:15.426Z,5.74
2023-11-12T01:10:43.514Z,5.75
2023-11-12T01:13:13.361Z,5.75
2023-11-12T01:15:43.692Z,5.75
2023-11-12T01:18:11.747Z,5.77
2023-11-12T01:20:39.749Z,5.77
2023-11-12T01:23:07.834Z,5.78
2023-11-12T01:25:35.822Z,5.79
2023-11-12T01:28:05.021Z,5.78
2023-11-12T01:30:34.625Z,5.75
2023-11-12T01:33:05.070Z,5.73
2023-11-12T01:35:33.836Z,5.70
2023-11-12T01:38:02.009Z,5.71
2023-11-12T01:40:30.563Z,5.69
2023-11-12T01:42:58.940Z,5.66
2023-11-12T01:45:26.896Z,5.62
2023-11-12T01:47:56.626Z,5.59
2023-11-12T01:50:24.733Z,5.58
2023-11-12T01:52:54.145Z,5.57
2023-11-12T01:55:24.805Z,5.59
2023-11-12T01:57:54.459Z,5.66
2023-11-12T02:00:23.639Z,5.63
2023-11-12T02:02:54.431Z,5.62
2023-11-12T02:05:25.323Z,5.61
2023-11-12T02:07:54.811Z,5.66
2023-11-12T02:10:22.816Z,5.71
2023-11-12T02:12:50.889Z,5.73
2023-11-12T02:15:19.479Z,5.76
2023-11-12T02:17:49.225Z,5.76
2023-11-12T02:20:17.288Z,5.72
2023-11-12T02:22:46.637Z,5.69
2023-11-12T02:25:16.560Z,5.56
2023-11-12T02:27:45.908Z,5.41
2023-11-12T02:30:14.454Z,5.25
2023-11-12T02:32:42.934Z,5.12
2023-11-12T02:35:11.476Z,5.03
2023-11-12T02:37:39.983Z,5.00
2023-11-12T02:40:09.442Z,4.98
2023-11-12T02:42:38.903Z,5.01
2023-11-12T02:45:08.782Z,4.92
2023-11-12T02:47:37.376Z,4.81
2023-11-12T02:50:33.081Z,4.74
2023-11-12T02:53:02.027Z,4.64
2023-11-12T02:55:30.442Z,4.57
2023-11-12T02:58:00.000Z,4.48
2023-11-12T03:00:29.456Z,4.41
2023-11-12T03:02:59.374Z,4.38
2023-11-12T03:05:28.124Z,4.34
2023-11-12T03:07:56.796Z,4.26
2023-11-12T03:10:26.054Z,4.20
2023-11-12T03:12:54.624Z,4.11
2023-11-12T03:15:24.942Z,4.03
2023-11-12T03:17:53.919Z,3.94
2023-11-12T03:20:22.181Z,3.88
2023-11-12T03:22:50.491Z,3.80
2023-11-12T03:25:18.543Z,3.75
2023-11-12T03:27:46.499Z,3.70
2023-11-12T03:30:15.650Z,3.64
2023-11-12T03:32:45.043Z,3.60
2023-11-12T03:35:13.642Z,3.54
2023-11-12T03:37:41.533Z,3.51
2023-11-12T03:40:10.933Z,3.47
2023-11-12T03:42:38.838Z,3.40
2023-11-12T03:45:07.830Z,3.35
2023-11-12T03:47:35.753Z,3.31
2023-11-12T03:50:05.593Z,3.27
2023-11-12T03:52:33.465Z,3.19
2023-11-12T03:55:01.318Z,3.15
2023-11-12T03:57:29.329Z,3.10
2023-11-12T03:59:57.231Z,3.05
2023-11-12T04:02:25.214Z,3.01
2023-11-12T04:04:53.658Z,2.99
2023-11-12T04:07:24.618Z,2.94
2023-11-12T04:09:52.622Z,2.88
2023-11-12T04:12:20.660Z,2.81
2023-11-12T04:14:48.640Z,2.77
2023-11-12T04:17:16.551Z,2.72
2023-11-12T04:19:44.787Z,2.66
2023-11-12T04:22:12.842Z,2.60
2023-11-12T04:24:42.197Z,2.55
2023-11-12T04:27:10.271Z,2.49
2023-11-12T04:29:38.204Z,2.44
2023-11-12T04:32:06.282Z,2.38
2023-11-12T04:34:34.195Z,2.34
2023-11-12T04:37:02.142Z,2.33
2023-11-12T04:39:30.105Z,2.30
2023-11-12T04:41:59.430Z,2.30
2023-11-12T04:44:27.694Z,2.33
2023-11-12T04:46:55.653Z,2.35
2023-11-12T04:49:25.479Z,2.37
2023-11-12T04:51:55.043Z,2.36
2023-11-12T04:54:23.033Z,2.37
2023-11-12T04:56:50.973Z,2.39
2023-11-12T04:59:20.348Z,2.43
2023-11-12T05:01:48.244Z,2.42
2023-11-12T05:04:17.373Z,2.36
2023-11-12T05:06:45.400Z,2.30
2023-11-12T05:09:13.348Z,2.27
2023-11-12T05:11:41.322Z,2.28
2023-11-12T05:14:11.147Z,2.29
2023-11-12T05:16:44.099Z,2.29
2023-11-12T05:19:12.469Z,2.26
2023-11-12T05:21:45.410Z,2.23
2023-11-12T05:24:13.996Z,2.20
2023-11-12T05:26:42.337Z,2.19
2023-11-12T05:29:10.329Z,2.15
2023-11-12T05:31:38.406Z,2.12
2023-11-12T05:34:07.786Z,2.06
2023-11-12T05:36:35.813Z,2.00
2023-11-12T05:39:03.760Z,1.96
2023-11-12T05:41:32.066Z,1.93
2023-11-12T05:44:00.053Z,1.96
2023-11-12T05:46:28.928Z,1.97
2023-11-12T05:48:56.878Z,1.97
2023-11-12T05:51:26.195Z,1.93
2023-11-12T05:53:54.117Z,1.92
2023-11-12T05:56:22.125Z,1.88
2023-11-12T05:58:50.089Z,1.85
2023-11-12T06:01:19.887Z,1.85
2023-11-12T06:03:48.010Z,1.87
2023-11-12T06:06:16.881Z,1.88
2023-11-12T06:08:46.099Z,1.89
2023-11-12T06:11:14.209Z,1.92
2023-11-12T06:13:42.026Z,1.95
2023-11-12T06:16:10.020Z,1.95
2023-11-12T06:18:38.434Z,1.91
2023-11-12T06:21:06.721Z,1.92
2023-11-12T06:23:35.556Z,1.92
2023-11-12T06:26:04.882Z,1.93
2023-11-12T06:28:32.651Z,1.95
2023-11-12T06:31:00.412Z,1.96
2023-11-12T06:33:28.365Z,2.00
2023-11-12T06:35:56.644Z,2.04
2023-11-12T06:38:24.834Z,2.07
2023-11-12T06:40:53.046Z,2.16
2023-11-12T06:43:22.421Z,2.23
2023-11-12T06:45:50.492Z,2.24
2023-11-12T06:48:19.843Z,2.23
2023-11-12T06:50:47.727Z,2.26
2023-11-12T06:53:15.727Z,2.27
2023-11-12T06:55:43.739Z,2.33
2023-11-12T06:58:11.809Z,2.40
2023-11-12T07:00:41.125Z,2.44
2023-11-12T07:03:09.350Z,2.51
2023-11-12T07:05:38.441Z,2.53
2023-11-12T07:08:06.840Z,2.60
2023-11-12T07:10:35.306Z,2.64
2023-11-12T07:13:03.168Z,2.69
2023-11-12T07:15:31.063Z,2.73
2023-11-12T07:18:02.453Z,2.80
2023-11-12T07:20:33.746Z,2.85
2023-11-12T07:23:02.351Z,2.93
2023-11-12T07:25:30.788Z,3.01
2023-11-12T07:27:58.669Z,3.06
2023-11-12T07:30:26.600Z,3.09
2023-11-12T07:32:54.473Z,3.15
2023-11-12T07:35:24.205Z,3.23
2023-11-12T07:37:52.288Z,3.27
2023-11-12T07:40:20.352Z,3.31
2023-11-12T07:42:48.244Z,3.30
2023-11-12T07:45:21.272Z,3.33
2023-11-12T07:47:53.532Z,3.37
2023-11-12T07:50:22.895Z,3.43
2023-11-12T07:52:51.229Z,3.50
2023-11-12T07:55:19.082Z,3.62
2023-11-12T07:57:46.954Z,3.73
2023-11-12T08:00:15.934Z,3.82
2023-11-12T08:02:46.577Z,3.89
2023-11-12T08:05:14.861Z,3.95
2023-11-12T08:07:44.121Z,4.00
2023-11-12T08:10:12.716Z,4.02
2023-11-12T08:12:40.586Z,4.06
2023-11-12T08:15:12.219Z,4.13
2023-11-12T08:17:40.153Z,4.19
2023-11-12T08:20:10.027Z,4.17
2023-11-12T08:22:37.806Z,4.13
2023-11-12T08:25:10.648Z,4.17
2023-11-12T08:27:39.293Z,4.30
2023-11-12T08:30:08.294Z,4.40
2023-11-12T08:32:37.345Z,4.53
2023-11-12T08:35:05.952Z,4.60
2023-11-12T08:37:33.833Z,4.62
2023-11-12T08:40:02.708Z,4.76
2023-11-12T08:42:32.019Z,4.92
2023-11-12T08:44:59.883Z,5.04
2023-11-12T08:47:27.902Z,5.11
2023-11-12T08:49:55.835Z,5.20
2023-11-12T08:52:23.940Z,5.29
2023-11-12T08:54:52.771Z,5.40
2023-11-12T08:57:20.625Z,5.48
2023-11-12T08:59:50.624Z,5.59
2023-11-12T09:02:18.405Z,5.67
2023-11-12T09:04:46.205Z,5.72
2023-11-12T09:07:14.234Z,5.73
2023-11-12T09:09:42.120Z,5.72
2023-11-12T09:12:10.127Z,5.73
2023-11-12T09:14:37.958Z,5.63
2023-11-12T09:17:07.970Z,5.56
2023-11-12T09:19:36.300Z,5.55
2023-11-12T09:22:04.233Z,5.52
2023-11-12T09:24:32.199Z,5.49
2023-11-12T09:26:59.982Z,5.50
2023-11-12T09:29:29.561Z,5.52
2023-11-12T09:31:57.398Z,5.49
2023-11-12T09:34:27.950Z,5.54
2023-11-12T09:36:55.821Z,5.57
2023-11-12T09:39:24.904Z,5.62
2023-11-12T09:41:55.816Z,5.60
2023-11-12T09:44:28.727Z,5.60
2023-11-12T09:47:17.922Z,5.63
2023-11-12T09:49:48.538Z,5.75
2023-11-12T09:52:16.416Z,5.82
2023-11-12T09:54:47.100Z,5.89
2023-11-12T09:57:15.374Z,5.90
2023-11-12T09:59:43.195Z,5.96
2023-11-12T10:02:11.567Z,6.00
2023-11-12T10:04:44.482Z,6.11
2023-11-12T10:07:16.519Z,6.24
2023-11-12T10:09:44.924Z,6.40
2023-11-12T10:12:12.981Z,6.61
2023-11-12T10:14:41.895Z,6.72
2023-11-12T10:17:12.302Z,6.81
2023-11-12T10:19:40.146Z,6.82
2023-11-12T10:22:08.590Z,6.83
2023-11-12T10:24:46.058Z,6.91
2023-11-12T10:27:15.555Z,7.01
2023-11-12T10:29:44.856Z,6.96
2023-11-12T10:32:26.490Z,7.01
2023-11-12T10:34:54.747Z,7.08
2023-11-12T10:37:22.608Z,7.14
2023-11-12T10:39:51.928Z,7.22
2023-11-12T10:42:25.957Z,7.36
2023-11-12T10:44:57.253Z,7.48
2023-11-12T10:47:26.874Z,7.49
2023-11-12T10:49:55.861Z,7.52
2023-11-12T10:52:24.912Z,7.67
2023-11-12T10:54:57.464Z,7.78
2023-11-12T10:57:26.169Z,7.88
2023-11-12T10:59:56.443Z,8.00
2023-11-12T11:02:30.034Z,8.09
2023-11-12T11:04:58.497Z,8.02
2023-11-12T11:07:26.526Z,8.09
2023-11-12T11:09:55.939Z,8.16
2023-11-12T11:12:24.818Z,8.07
2023-11-12T11:14:52.670Z,8.21
2023-11-12T11:17:37.751Z,8.25
2023-11-12T11:20:06.680Z,8.40
2023-11-12T11:22:34.625Z,8.50
2023-11-12T11:25:24.130Z,8.75
2023-11-12T11:28:12.086Z,8.98
2023-11-12T11:31:10.927Z,8.87
2023-11-12T11:33:47.778Z,9.22
2023-11-12T11:36:16.716Z,9.37
2023-11-12T11:39:15.728Z,9.49
2023-11-12T11:42:18.550Z,9.40
2023-11-12T11:44:47.980Z,9.32
2023-11-12T11:47:17.215Z,9.40
2023-11-12T11:49:47.382Z,9.45
2023-11-12T11:52:23.068Z,9.61
2023-11-12T11:54:58.583Z,9.83
2023-11-12T11:57:29.142Z,9.88
2023-11-12T11:59:58.487Z,9.83
2023-11-12T12:02:26.881Z,9.88
2023-11-12T12:04:58.514Z,9.82
2023-11-12T12:07:42.646Z,9.87
2023-11-12T12:10:12.703Z,9.81
2023-11-12T12:12:42.420Z,9.65
2023-11-12T12:15:12.537Z,9.89
2023-11-12T12:17:42.154Z,9.82
2023-11-12T12:20:11.169Z,9.87
2023-11-12T12:22:39.947Z,9.92
2023-11-12T12:25:10.240Z,10.04
2023-11-12T12:27:38.316Z,10.12
2023-11-12T12:30:14.140Z,10.13
2023-11-12T12:32:42.202Z,10.02
2023-11-12T12:35:10.322Z,9.93
2023-11-12T12:37:38.269Z,9.81
2023-11-12T12:40:15.002Z,9.70
2023-11-12T12:42:44.517Z,9.48
2023-11-12T12:45:17.145Z,9.50
2023-11-12T12:47:45.780Z,9.57
2023-11-12T12:50:16.328Z,9.54
2023-11-12T12:52:48.355Z,9.49
2023-11-12T12:55:18.298Z,9.44
2023-11-12T12:57:51.034Z,9.49
2023-11-12T13:00:23.572Z,9.42
2023-11-12T13:02:52.849Z,9.42
2023-11-12T13:05:22.743Z,9.47
2023-11-12T13:07:51.695Z,9.41
2023-11-12T13:10:21.653Z,9.38
2023-11-12T13:12:51.608Z,9.40
2023-11-12T13:15:22.389Z,9.29
2023-11-12T13:17:50.844Z,9.29
2023-11-12T13:20:20.938Z,9.25
2023-11-12T13:22:49.386Z,9.18
2023-11-12T13:25:17.245Z,9.09
2023-11-12T13:27:46.660Z,9.10
2023-11-12T13:30:16.249Z,9.04
2023-11-12T13:32:47.781Z,9.02
2023-11-12T13:35:16.842Z,8.98
2023-11-12T13:37:46.511Z,8.93
2023-11-12T13:40:15.561Z,8.83
2023-11-12T13:42:44.097Z,8.77
2023-11-12T13:45:13.121Z,8.74
2023-11-12T13:47:41.143Z,8.66
2023-11-12T13:50:14.824Z,8.63
2023-11-12T13:52:44.040Z,8.58
2023-11-12T13:55:13.023Z,8.49
2023-11-12T13:57:40.949Z,8.49
2023-11-12T14:00:37.063Z,8.40
2023-11-12T14:03:05.205Z,8.36
2023-11-12T14:05:34.503Z,8.29
2023-11-12T14:08:02.317Z,8.30
2023-11-12T14:10:31.800Z,8.22
2023-11-12T14:13:00.667Z,8.22
2023-11-12T14:15:29.288Z,8.23
2023-11-12T14:17:57.264Z,8.18
2023-11-12T14:20:26.948Z,8.13
2023-11-12T14:22:57.080Z,8.04
2023-11-12T14:25:25.258Z,8.01
2023-11-12T14:27:53.861Z,7.99
2023-11-12T14:30:22.062Z,7.99
2023-11-12T14:32:51.939Z,7.91
2023-11-12T14:35:23.547Z,7.92
2023-11-12T14:37:51.467Z,7.92
2023-11-12T14:40:20.993Z,7.89
2023-11-12T14:42:48.941Z,7.86
2023-11-12T14:45:25.736Z,7.86
2023-11-12T14:48:00.572Z,7.86
2023-11-12T14:50:30.017Z,7.85
2023-11-12T14:52:58.976Z,7.83
2023-11-12T14:55:28.910Z,7.82
2023-11-12T14:57:57.867Z,7.81
2023-11-12T15:00:30.676Z,7.77
2023-11-12T15:03:00.330Z,7.74
2023-11-12T15:05:29.584Z,7.71
2023-11-12T15:07:59.030Z,7.66
2023-11-12T15:10:29.965Z,7.62
2023-11-12T15:12:58.897Z,7.58
2023-11-12T15:15:26.938Z,7.53
2023-11-12T15:17:55.672Z,7.48
2023-11-12T15:20:24.687Z,7.46
2023-11-12T15:22:52.948Z,7.44
2023-11-12T15:25:21.108Z,7.43
2023-11-12T15:27:51.111Z,7.36
2023-11-12T15:30:20.589Z,7.32
2023-11-12T15:32:49.283Z,7.29
2023-11-12T15:35:18.609Z,7.26
2023-11-12T15:37:46.614Z,7.24
2023-11-12T15:40:21.158Z,7.22
2023-11-12T15:42:52.817Z,7.20
2023-11-12T15:45:24.923Z,7.16
2023-11-12T15:47:53.905Z,7.16
2023-11-12T15:50:23.609Z,7.12
2023-11-12T15:52:51.826Z,7.10
2023-11-12T15:55:19.881Z,7.10
2023-11-12T15:57:48.013Z,7.07
2023-11-12T16:00:19.543Z,7.02
2023-11-12T16:02:51.042Z,7.01
2023-11-12T16:05:20.444Z,6.97
2023-11-12T16:07:49.651Z,6.92
2023-11-12T16:10:18.982Z,6.89
2023-11-12T16:12:47.273Z,6.85
2023-11-12T16:15:16.973Z,6.83
2023-11-12T16:17:50.060Z,6.81
2023-11-12T16:20:18.193Z,6.82
2023-11-12T16:22:46.924Z,6.76
2023-11-12T16:25:14.944Z,6.63
2023-11-12T16:27:42.922Z,6.58
2023-11-12T16:30:12.918Z,6.54
2023-11-12T16:32:41.136Z,6.49
2023-11-12T16:35:12.877Z,6.48
2023-11-12T16:37:47.953Z,6.44
2023-11-12T16:40:16.913Z,6.37
2023-11-12T16:42:47.058Z,6.37
2023-11-12T16:45:15.323Z,6.30
2023-11-12T16:47:43.469Z,6.26
2023-11-12T16:50:15.596Z,6.25
2023-11-12T16:53:02.197Z,6.22
2023-11-12T16:55:30.029Z,6.12
2023-11-12T16:57:57.975Z,6.04
2023-11-12T17:00:29.330Z,6.05
2023-11-12T17:02:57.260Z,6.01
2023-11-12T17:05:27.996Z,5.94
2023-11-12T17:07:56.154Z,5.95
2023-11-12T17:10:24.023Z,5.94
2023-11-12T17:12:53.341Z,5.88
2023-11-12T17:15:21.385Z,5.85
2023-11-12T17:17:49.871Z,5.81
2023-11-12T17:20:18.676Z,5.71
2023-11-12T17:22:48.572Z,5.61
2023-11-12T17:25:17.945Z,5.58
2023-11-12T17:27:45.997Z,5.51
2023-11-12T17:30:14.293Z,5.40
2023-11-12T17:32:42.514Z,5.26
2023-11-12T17:35:12.191Z,5.21
2023-11-12T17:37:40.104Z,5.10
2023-11-12T17:40:11.947Z,5.07
2023-11-12T17:42:40.130Z,5.05
2023-11-12T17:45:11.882Z,5.01
2023-11-12T17:47:40.489Z,4.97
2023-11-12T17:50:09.150Z,4.92
2023-11-12T17:52:37.114Z,4.84
2023-11-12T17:55:07.254Z,4.83
2023-11-12T17:57:36.706Z,4.74
2023-11-12T18:00:07.418Z,4.71
2023-11-12T18:02:39.622Z,4.68
2023-11-12T18:05:07.906Z,4.68
2023-11-12T18:10:25.850Z,4.66
2023-11-12T18:12:55.176Z,4.60
2023-11-12T18:15:23.043Z,4.60
2023-11-12T18:17:50.855Z,4.61
2023-11-12T18:20:18.962Z,4.60
2023-11-12T18:22:46.793Z,4.64
2023-11-12T18:25:14.818Z,4.67
2023-11-12T18:27:43.042Z,4.71
2023-11-12T18:30:13.477Z,4.72
2023-11-12T18:32:41.421Z,4.74
2023-11-12T18:35:10.848Z,4.73
2023-11-12T18:37:39.885Z,4.74
2023-11-12T18:40:10.187Z,4.74
2023-11-12T18:42:39.651Z,4.73
2023-11-12T18:45:17.035Z,4.72
2023-11-12T18:47:45.155Z,4.73
2023-11-12T18:50:13.647Z,4.74
2023-11-12T18:52:43.482Z,4.74
2023-11-12T18:55:14.980Z,4.75
2023-11-12T18:57:45.243Z,4.77
2023-11-12T19:00:15.819Z,4.77
2023-11-12T19:02:44.744Z,4.75
2023-11-12T19:05:12.804Z,4.77
2023-11-12T19:07:40.617Z,4.79
2023-11-12T19:10:12.188Z,4.80
2023-11-12T19:12:43.863Z,4.81
2023-11-12T19:15:14.769Z,4.82
2023-11-12T19:17:46.533Z,4.80
2023-11-12T19:20:16.466Z,4.80
2023-11-12T19:22:46.415Z,4.81
2023-11-12T19:25:17.660Z,4.82
2023-11-12T19:27:46.619Z,4.86
2023-11-12T19:30:17.260Z,4.86
2023-11-12T19:32:46.758Z,4.90
2023-11-12T19:35:15.407Z,4.90
2023-11-12T19:37:45.221Z,4.90
2023-11-12T19:40:17.489Z,4.90
2023-11-12T19:42:48.286Z,4.88
2023-11-12T19:45:20.367Z,4.88
2023-11-12T19:47:52.420Z,4.86
2023-11-12T19:50:22.693Z,4.84
2023-11-12T19:52:50.908Z,4.82
2023-11-12T19:55:20.344Z,4.79
2023-11-12T19:57:53.144Z,4.83
2023-11-12T20:00:24.292Z,4.82
2023-11-12T20:02:53.115Z,4.84
2023-11-12T20:05:22.492Z,4.82
2023-11-12T20:07:53.294Z,4.82
2023-11-12T20:10:26.060Z,4.80
2023-11-12T20:12:54.030Z,4.78
2023-11-12T20:15:22.112Z,4.75
2023-11-12T20:17:58.538Z,4.77
2023-11-12T20:20:27.562Z,4.75
2023-11-12T20:22:55.968Z,4.75
2023-11-12T20:25:26.213Z,4.76
2023-11-12T20:27:55.443Z,4.78
2023-11-12T20:30:26.831Z,4.78
2023-11-12T20:32:57.945Z,4.78
2023-11-12T20:35:25.937Z,4.80
2023-11-12T20:37:53.841Z,4.81
2023-11-12T20:40:27.467Z,4.80
2023-11-12T20:42:57.261Z,4.81
2023-11-12T20:45:26.418Z,4.84
2023-11-12T20:47:54.322Z,4.88
2023-11-12T20:50:24.356Z,4.93
2023-11-12T20:52:55.931Z,4.93
2023-11-12T20:55:23.968Z,4.97
2023-11-12T20:57:54.579Z,4.97
2023-11-12T21:00:23.240Z,4.96
2023-11-12T21:02:52.357Z,4.97
2023-11-12T21:05:23.208Z,4.97
2023-11-12T21:07:51.427Z,4.92
2023-11-12T21:10:22.591Z,4.94
2023-11-12T21:12:50.568Z,4.93
2023-11-12T21:15:23.464Z,4.96
2023-11-12T21:17:53.049Z,5.02
2023-11-12T21:20:21.052Z,4.99
2023-11-12T21:22:50.253Z,4.96
2023-11-12T21:25:21.100Z,4.95
2023-11-12T21:27:49.298Z,4.99
2023-11-12T21:30:22.413Z,5.03
2023-11-12T21:32:50.227Z,4.99
2023-11-12T21:35:20.376Z,5.01
2023-11-12T21:37:48.201Z,4.99
2023-11-12T21:40:17.990Z,5.06
2023-11-12T21:42:46.551Z,5.08
2023-11-12T21:45:15.385Z,5.08
2023-11-12T21:47:43.195Z,5.09
2023-11-12T21:50:16.210Z,5.09
2023-11-12T21:52:46.297Z,5.07
2023-11-12T21:55:14.276Z,5.00
2023-11-12T21:57:43.636Z,5.01
2023-11-12T22:00:13.423Z,5.00
2023-11-12T22:02:42.713Z,5.05
2023-11-12T22:05:11.213Z,5.05
2023-11-12T22:07:39.353Z,5.11
2023-11-12T22:10:10.470Z,5.16
2023-11-12T22:12:39.689Z,5.25
2023-11-12T22:15:14.803Z,5.29
2023-11-12T22:17:42.802Z,5.36
2023-11-12T22:20:14.941Z,5.40
2023-11-12T22:22:44.745Z,5.48
2023-11-12T22:25:14.738Z,5.53
2023-11-12T22:27:44.996Z,5.55
2023-11-12T22:30:16.046Z,5.59
2023-11-12T22:32:49.679Z,5.66
2023-11-12T22:35:18.180Z,5.70
2023-11-12T22:37:46.000Z,5.73
2023-11-12T22:40:18.638Z,5.78
2023-11-12T22:42:46.846Z,5.81
2023-11-12T22:45:16.575Z,5.86
2023-11-12T22:47:44.487Z,5.89
2023-11-12T22:50:22.030Z,5.95
2023-11-12T22:52:49.972Z,5.98
2023-11-12T22:55:21.028Z,6.01
2023-11-12T22:57:49.081Z,6.06
2023-11-12T23:00:42.453Z,6.08
2023-11-12T23:03:13.436Z,6.14
2023-11-12T23:05:44.994Z,6.17
2023-11-12T23:08:13.093Z,6.22
2023-11-12T23:10:43.773Z,6.26
2023-11-12T23:13:13.234Z,6.30
2023-11-12T23:15:43.783Z,6.32
2023-11-12T23:18:12.461Z,6.35
2023-11-12T23:20:45.692Z,6.39
2023-11-12T23:23:17.462Z,6.42
2023-11-12T23:25:45.293Z,6.46
2023-11-12T23:28:14.861Z,6.50
2023-11-12T23:30:45.093Z,6.51
2023-11-12T23:33:13.291Z,6.58
2023-11-12T23:35:41.200Z,6.64
2023-11-12T23:38:09.076Z,6.67
2023-11-12T23:40:36.932Z,6.70
2023-11-12T23:43:05.375Z,6.72
2023-11-12T23:45:33.552Z,6.75
2023-11-12T23:48:02.831Z,6.78
2023-11-12T23:50:31.051Z,6.82
2023-11-12T23:52:59.802Z,6.87
2023-11-12T23:55:27.660Z,6.92
2023-11-12T23:57:55.823Z,6.94
